Time;durP1;ratioP1;P1;durP2;ratioP2;P2;SDS_P1;SDS_P2;PMS_P1;PMS_P2;Temp;Humidity;BMP_temperature;BMP_pressure;BME280_temperature;BME280_humidity;BME280_pressure;Samples;Min_cycle;Max_cycle;Signal;HPM_P1;HPM_P2
2024/03/22 00:00:58;;;;;;;9.03;5.90;;;7.70;99.90;;;;;;2062351;28;20222;-64
2024/03/22 00:01:59;;;;;;;7.63;5.13;;;7.70;99.90;;;;;;2062798;28;20232;-65
2024/03/22 00:02:59;;;;;;;7.30;5.30;;;7.70;99.90;;;;;;2062722;28;20692;-64
2024/03/22 00:04:00;;;;;;;8.43;5.80;;;7.60;99.90;;;;;;2063198;28;20232;-66
2024/03/22 00:05:01;;;;;;;7.47;5.83;;;7.60;99.90;;;;;;2053654;28;20305;-65
2024/03/22 00:06:01;;;;;;;9.27;6.13;;;7.60;99.90;;;;;;2053787;28;20183;-65
2024/03/22 00:07:03;;;;;;;9.47;6.03;;;7.60;99.90;;;;;;2062211;28;20184;-65
2024/03/22 00:08:04;;;;;;;8.38;6.40;;;7.60;99.90;;;;;;2061753;28;20190;-65
2024/03/22 00:09:05;;;;;;;8.48;6.85;;;7.70;99.90;;;;;;2062987;28;20232;-65
2024/03/22 00:10:07;;;;;;;8.93;6.47;;;7.70;99.90;;;;;;2052890;28;20183;-66
2024/03/22 00:11:07;;;;;;;12.40;7.25;;;7.70;99.90;;;;;;2054470;28;20191;-64
2024/03/22 00:12:08;;;;;;;10.47;7.03;;;7.80;99.90;;;;;;2063066;28;20189;-65
2024/03/22 00:13:09;;;;;;;10.03;6.87;;;7.70;99.90;;;;;;2063671;28;20694;-65
2024/03/22 00:14:11;;;;;;;10.97;7.17;;;7.70;99.90;;;;;;2062273;28;20241;-64
2024/03/22 00:15:12;;;;;;;8.63;5.88;;;7.70;99.90;;;;;;2062597;28;20192;-65
2024/03/22 00:16:12;;;;;;;7.97;5.33;;;7.70;99.90;;;;;;2053188;28;20210;-64
2024/03/22 00:17:13;;;;;;;10.27;7.13;;;7.70;99.90;;;;;;2039603;28;20336;-64
2024/03/22 00:18:14;;;;;;;8.90;6.30;;;7.70;99.90;;;;;;2053639;28;20215;-65
2024/03/22 00:19:14;;;;;;;10.43;7.50;;;7.80;99.90;;;;;;2054892;28;20187;-65
2024/03/22 00:20:15;;;;;;;7.13;4.97;;;7.80;99.90;;;;;;2052834;28;20269;-64
2024/03/22 00:21:16;;;;;;;9.87;6.80;;;7.60;99.90;;;;;;2053789;28;20256;-69
2024/03/22 00:22:17;;;;;;;11.73;5.87;;;7.60;99.90;;;;;;2062385;28;20190;-66
2024/03/22 00:23:17;;;;;;;11.23;6.77;;;7.60;99.90;;;;;;2063022;28;20830;-68
2024/03/22 00:24:18;;;;;;;9.47;6.27;;;7.60;99.90;;;;;;2062439;28;20178;-67
2024/03/22 00:25:19;;;;;;;7.87;5.93;;;7.60;99.90;;;;;;2063358;28;20204;-66
2024/03/22 00:26:19;;;;;;;11.20;6.50;;;7.50;99.90;;;;;;2066074;28;20178;-65
2024/03/22 00:27:20;;;;;;;13.13;7.23;;;7.50;99.90;;;;;;2065971;28;20391;-64
2024/03/22 00:28:21;;;;;;;11.87;7.43;;;7.50;99.90;;;;;;2057566;28;20236;-65
2024/03/22 00:29:22;;;;;;;11.83;7.67;;;7.60;99.90;;;;;;2052305;28;20226;-64
2024/03/22 00:30:23;;;;;;;9.88;7.22;;;7.50;99.90;;;;;;2044718;28;20603;-63
2024/03/22 00:31:24;;;;;;;11.17;7.20;;;7.50;99.90;;;;;;2040430;28;20237;-65
2024/03/22 00:32:24;;;;;;;10.82;7.82;;;7.50;99.90;;;;;;2048192;28;20235;-64
2024/03/22 00:33:25;;;;;;;12.20;8.07;;;7.60;99.90;;;;;;2055209;28;20756;-65
2024/03/22 00:34:26;;;;;;;9.63;7.23;;;7.60;99.90;;;;;;2055267;28;20262;-66
2024/03/22 00:35:26;;;;;;;13.03;7.03;;;7.60;99.90;;;;;;2047657;28;20312;-65
2024/03/22 00:36:27;;;;;;;8.50;5.43;;;7.70;99.90;;;;;;2055488;28;20254;-65
2024/03/22 00:37:28;;;;;;;9.77;6.27;;;7.60;99.90;;;;;;2056187;28;20229;-65
2024/03/22 00:38:29;;;;;;;7.93;5.83;;;7.70;99.90;;;;;;2046858;28;20231;-65
2024/03/22 00:39:30;;;;;;;6.13;4.95;;;7.60;99.90;;;;;;2055262;28;20258;-63
2024/03/22 00:40:31;;;;;;;6.67;4.53;;;7.60;99.90;;;;;;2054613;28;20706;-66
2024/03/22 00:41:32;;;;;;;7.73;4.63;;;7.70;99.90;;;;;;2047802;28;20239;-65
2024/03/22 00:42:32;;;;;;;8.13;5.40;;;7.70;99.90;;;;;;2055045;28;20270;-64
2024/03/22 00:43:33;;;;;;;7.47;5.03;;;7.70;99.90;;;;;;2063771;28;20245;-64
2024/03/22 00:44:34;;;;;;;6.77;5.20;;;7.70;99.90;;;;;;2062968;28;20238;-65
2024/03/22 00:45:34;;;;;;;6.77;4.60;;;7.70;99.90;;;;;;2067047;28;20704;-65
2024/03/22 00:46:36;;;;;;;8.00;4.73;;;7.70;99.90;;;;;;2063388;28;20234;-65
2024/03/22 00:47:37;;;;;;;7.10;5.10;;;7.70;99.90;;;;;;2063878;28;20233;-64
2024/03/22 00:48:37;;;;;;;8.47;5.17;;;7.60;99.90;;;;;;2055021;28;20279;-65
2024/03/22 00:49:38;;;;;;;7.43;4.87;;;7.60;99.90;;;;;;2047488;28;20231;-67
2024/03/22 00:50:39;;;;;;;8.10;5.20;;;7.60;99.90;;;;;;2054878;28;20782;-66
2024/03/22 00:51:40;;;;;;;6.70;5.43;;;7.60;99.90;;;;;;2062912;28;20236;-65
2024/03/22 00:52:41;;;;;;;5.93;5.00;;;7.60;99.90;;;;;;2055267;28;20226;-65
2024/03/22 00:53:42;;;;;;;9.70;6.13;;;7.60;99.90;;;;;;2047785;28;20227;-65
2024/03/22 00:54:43;;;;;;;8.73;5.63;;;7.60;99.90;;;;;;2039137;29;20235;-65
2024/03/22 00:55:44;;;;;;;8.55;5.13;;;7.50;99.90;;;;;;2047423;28;20227;-65
2024/03/22 00:56:44;;;;;;;9.20;5.63;;;7.50;99.90;;;;;;2054596;28;20231;-67
2024/03/22 00:57:45;;;;;;;6.27;4.77;;;7.50;99.90;;;;;;2054858;28;20389;-65
2024/03/22 00:58:46;;;;;;;7.47;4.90;;;7.40;99.90;;;;;;2054955;28;20234;-64
2024/03/22 00:59:47;;;;;;;7.50;5.40;;;7.50;99.90;;;;;;2056237;28;20226;-64
2024/03/22 01:00:47;;;;;;;10.15;6.28;;;7.50;99.90;;;;;;2055767;28;20262;-65
2024/03/22 01:01:48;;;;;;;7.87;5.20;;;7.50;99.90;;;;;;2063337;28;20376;-64
2024/03/22 01:02:50;;;;;;;7.03;5.35;;;7.50;99.90;;;;;;2063343;28;20241;-66
2024/03/22 01:03:51;;;;;;;9.00;6.25;;;7.50;99.90;;;;;;2057988;28;20223;-64
2024/03/22 01:04:52;;;;;;;7.20;5.37;;;7.40;99.90;;;;;;2054651;28;20317;-65
2024/03/22 01:05:52;;;;;;;8.13;6.40;;;7.50;99.90;;;;;;2065380;28;20729;-64
2024/03/22 01:06:53;;;;;;;7.87;5.90;;;7.50;99.90;;;;;;2062716;28;20269;-63
2024/03/22 01:07:54;;;;;;;8.57;5.40;;;7.40;99.90;;;;;;2064517;28;20257;-65
2024/03/22 01:08:55;;;;;;;8.37;6.10;;;7.40;99.90;;;;;;2062918;28;20234;-65
2024/03/22 01:09:55;;;;;;;7.00;4.67;;;7.40;99.90;;;;;;2066113;28;20225;-64
2024/03/22 01:10:56;;;;;;;10.20;5.60;;;7.50;99.90;;;;;;2063213;28;20230;-64
2024/03/22 01:11:57;;;;;;;8.30;4.87;;;7.50;99.90;;;;;;2063729;28;20238;-65
2024/03/22 01:12:57;;;;;;;7.00;4.33;;;7.40;99.90;;;;;;2062445;28;20232;-63
2024/03/22 01:13:58;;;;;;;7.73;4.80;;;7.40;99.90;;;;;;2055195;28;20918;-64
2024/03/22 01:14:59;;;;;;;9.23;6.37;;;7.40;99.90;;;;;;2054437;28;20225;-65
2024/03/22 01:16:00;;;;;;;8.63;5.60;;;7.40;99.90;;;;;;2054754;28;20215;-64
2024/03/22 01:17:00;;;;;;;11.20;6.13;;;7.30;99.90;;;;;;2055875;28;20659;-66
2024/03/22 01:18:01;;;;;;;8.17;5.87;;;7.30;99.90;;;;;;2063647;28;20316;-65
2024/03/22 01:19:02;;;;;;;9.57;5.77;;;7.40;99.90;;;;;;2062548;28;20186;-64
2024/03/22 01:20:04;;;;;;;11.98;6.00;;;7.40;99.90;;;;;;2064341;28;20183;-66
2024/03/22 01:21:05;;;;;;;9.38;5.57;;;7.40;99.90;;;;;;2068928;28;20213;-65
2024/03/22 01:22:06;;;;;;;8.83;5.63;;;7.40;99.90;;;;;;2067841;28;20333;-64
2024/03/22 01:23:07;;;;;;;9.85;6.53;;;7.40;99.90;;;;;;2057907;28;20207;-64
2024/03/22 01:24:08;;;;;;;9.67;6.40;;;7.40;99.90;;;;;;2056542;28;20183;-65
2024/03/22 01:25:09;;;;;;;8.73;5.90;;;7.40;99.90;;;;;;2055531;28;20965;-64
2024/03/22 01:26:10;;;;;;;9.95;6.57;;;7.40;99.90;;;;;;2056411;28;20199;-64
2024/03/22 01:27:11;;;;;;;9.63;5.60;;;7.40;99.90;;;;;;2057291;28;20282;-65
2024/03/22 01:28:12;;;;;;;7.05;5.57;;;7.40;99.90;;;;;;2056461;28;20208;-65
2024/03/22 01:29:14;;;;;;;7.50;5.27;;;7.40;99.90;;;;;;2052465;28;20314;-65
2024/03/22 01:30:14;;;;;;;7.70;5.57;;;7.50;99.90;;;;;;2064114;28;20183;-65
2024/03/22 01:31:16;;;;;;;8.73;6.07;;;7.50;99.90;;;;;;2064236;28;20193;-64
2024/03/22 01:32:16;;;;;;;8.23;6.35;;;7.60;99.90;;;;;;2054578;28;20575;-64
2024/03/22 01:33:17;;;;;;;9.57;5.83;;;7.60;99.90;;;;;;2057512;28;20216;-66
2024/03/22 01:34:18;;;;;;;6.63;4.93;;;7.70;99.90;;;;;;2063746;28;20191;-65
2024/03/22 01:35:18;;;;;;;6.73;4.40;;;7.70;99.90;;;;;;2063249;28;20201;-65
2024/03/22 01:36:19;;;;;;;9.23;5.80;;;7.60;99.90;;;;;;2062865;28;20651;-65
2024/03/22 01:37:20;;;;;;;9.93;5.80;;;7.70;99.90;;;;;;2062140;28;20233;-66
2024/03/22 01:38:21;;;;;;;13.02;5.53;;;7.70;99.90;;;;;;2062581;28;20260;-65
2024/03/22 01:39:22;;;;;;;9.10;5.95;;;7.80;99.90;;;;;;2054691;28;20234;-65
2024/03/22 01:40:23;;;;;;;9.77;6.17;;;7.70;99.90;;;;;;2054593;28;20237;-66
2024/03/22 01:41:23;;;;;;;7.43;5.30;;;7.80;99.90;;;;;;2062493;28;20311;-66
2024/03/22 01:42:24;;;;;;;10.17;7.13;;;7.80;99.90;;;;;;2054375;28;20317;-67
2024/03/22 01:43:25;;;;;;;9.63;7.07;;;7.80;99.90;;;;;;2052523;28;20245;-66
2024/03/22 01:44:28;;;;;;;8.60;5.57;;;7.90;99.90;;;;;;2062421;28;20312;-67
2024/03/22 01:45:32;;;;;;;7.18;5.38;;;7.80;99.90;;;;;;2063098;28;20226;-66
2024/03/22 01:46:33;;;;;;;6.70;5.00;;;7.80;99.90;;;;;;2046442;28;20578;-66
2024/03/22 01:47:34;;;;;;;8.03;6.30;;;7.80;99.90;;;;;;2046460;28;20240;-65
2024/03/22 01:48:34;;;;;;;10.43;5.80;;;7.80;99.90;;;;;;2054311;28;20232;-65
2024/03/22 01:49:35;;;;;;;9.47;6.10;;;7.80;99.90;;;;;;2046552;28;20254;-65
2024/03/22 01:50:36;;;;;;;8.68;5.72;;;7.80;99.90;;;;;;2046175;28;20579;-67
2024/03/22 01:51:38;;;;;;;10.25;5.65;;;7.80;99.90;;;;;;2045819;28;20896;-66
2024/03/22 01:52:40;;;;;;;13.00;8.02;;;7.80;99.90;;;;;;2054567;28;20281;-67
2024/03/22 01:53:41;;;;;;;8.70;6.25;;;7.90;99.90;;;;;;2054199;28;20237;-66
2024/03/22 01:54:42;;;;;;;8.63;5.85;;;7.80;99.90;;;;;;2047885;28;20239;-64
2024/03/22 01:55:43;;;;;;;10.40;5.65;;;7.80;99.90;;;;;;2054515;28;20234;-64
2024/03/22 01:56:44;;;;;;;8.90;6.10;;;7.80;99.90;;;;;;2053546;28;20262;-66
2024/03/22 01:57:45;;;;;;;7.40;5.60;;;7.80;99.90;;;;;;2052825;28;20266;-66
2024/03/22 01:58:46;;;;;;;10.87;6.83;;;7.70;99.90;;;;;;2053657;28;20229;-66
2024/03/22 01:59:49;;;;;;;11.45;6.57;;;7.70;99.90;;;;;;2054090;28;20243;-66
2024/03/22 02:00:50;;;;;;;10.60;6.93;;;7.70;99.90;;;;;;2054696;28;20222;-65
2024/03/22 02:01:51;;;;;;;10.93;6.83;;;7.80;99.90;;;;;;2053507;28;20226;-66
2024/03/22 02:02:51;;;;;;;12.73;7.40;;;7.80;99.90;;;;;;2057498;28;20317;-66
2024/03/22 02:03:52;;;;;;;10.27;6.57;;;7.70;99.90;;;;;;2057822;28;20697;-66
2024/03/22 02:04:53;;;;;;;14.90;8.53;;;7.70;99.90;;;;;;2062476;28;20718;-66
2024/03/22 02:05:54;;;;;;;10.93;7.17;;;7.70;99.90;;;;;;2062161;28;20231;-66
2024/03/22 02:06:54;;;;;;;11.33;7.37;;;7.70;99.90;;;;;;2061880;28;20230;-65
2024/03/22 02:07:55;;;;;;;9.47;6.20;;;7.70;99.90;;;;;;2063724;28;20229;-66
2024/03/22 02:08:57;;;;;;;10.77;7.33;;;7.70;99.90;;;;;;2061665;28;20222;-66
2024/03/22 02:09:58;;;;;;;10.60;6.75;;;7.70;99.90;;;;;;2055072;28;20221;-66
2024/03/22 02:10:59;;;;;;;13.03;6.57;;;7.70;99.90;;;;;;2053762;28;20241;-66
2024/03/22 02:11:59;;;;;;;9.53;5.43;;;7.70;99.90;;;;;;2062153;28;20226;-66
2024/03/22 02:13:00;;;;;;;8.73;5.90;;;7.60;99.90;;;;;;2065265;28;20222;-66
2024/03/22 02:14:01;;;;;;;8.73;4.80;;;7.60;99.90;;;;;;2062368;28;20206;-64
2024/03/22 02:15:02;;;;;;;10.57;5.30;;;7.50;99.90;;;;;;2062186;28;20269;-65
2024/03/22 02:16:04;;;;;;;6.13;4.82;;;7.40;99.90;;;;;;2061969;28;20178;-66
2024/03/22 02:17:04;;;;;;;8.27;5.75;;;7.40;99.90;;;;;;2061904;28;20194;-66
2024/03/22 02:18:05;;;;;;;12.60;7.60;;;7.40;99.90;;;;;;2063072;28;20206;-66
2024/03/22 02:19:07;;;;;;;11.63;7.97;;;7.40;99.90;;;;;;2052995;28;20175;-66
2024/03/22 02:20:08;;;;;;;9.48;6.03;;;7.40;99.90;;;;;;2045520;28;20188;-66
2024/03/22 02:21:09;;;;;;;7.47;5.65;;;7.40;99.90;;;;;;2050493;28;20180;-66
2024/03/22 02:22:10;;;;;;;8.30;5.53;;;7.30;99.90;;;;;;2062019;28;20182;-66
2024/03/22 02:23:10;;;;;;;8.53;5.47;;;7.30;99.90;;;;;;2061287;28;20202;-66
2024/03/22 02:24:11;;;;;;;6.93;5.20;;;7.30;99.90;;;;;;2061950;28;20212;-66
2024/03/22 02:25:12;;;;;;;12.00;5.80;;;7.30;99.90;;;;;;2062054;28;20206;-66
2024/03/22 02:26:13;;;;;;;8.13;5.23;;;7.20;99.90;;;;;;2061630;28;20175;-66
2024/03/22 02:27:13;;;;;;;9.33;5.97;;;7.10;99.90;;;;;;2062377;28;20174;-66
2024/03/22 02:28:14;;;;;;;10.50;6.33;;;7.10;99.90;;;;;;2061417;28;20273;-66
2024/03/22 02:29:14;;;;;;;10.33;6.40;;;7.00;99.90;;;;;;2062004;28;20217;-66
2024/03/22 02:30:16;;;;;;;12.07;6.40;;;7.00;99.90;;;;;;2062771;28;20260;-66
2024/03/22 02:31:17;;;;;;;12.00;7.40;;;7.00;99.90;;;;;;2054442;28;20190;-66
2024/03/22 02:32:17;;;;;;;10.93;7.63;;;7.00;99.90;;;;;;2054240;28;20183;-66
2024/03/22 02:33:18;;;;;;;11.90;6.93;;;7.00;99.90;;;;;;2062296;28;20206;-66
2024/03/22 02:34:19;;;;;;;11.63;7.17;;;7.00;99.90;;;;;;2062822;28;20192;-66
2024/03/22 02:35:19;;;;;;;11.03;7.03;;;7.00;99.90;;;;;;2054058;28;20195;-66
2024/03/22 02:36:20;;;;;;;12.80;7.67;;;6.90;99.90;;;;;;2053452;28;20187;-66
2024/03/22 02:37:21;;;;;;;11.93;7.70;;;6.90;99.90;;;;;;2062047;28;20231;-66
2024/03/22 02:38:21;;;;;;;8.67;6.10;;;6.90;99.90;;;;;;2061886;28;20750;-66
2024/03/22 02:39:22;;;;;;;10.67;6.67;;;7.00;99.90;;;;;;2062790;28;20229;-66
2024/03/22 02:40:23;;;;;;;9.83;6.30;;;7.00;99.90;;;;;;2061846;28;20225;-66
2024/03/22 02:41:23;;;;;;;9.83;6.33;;;7.00;99.90;;;;;;2061883;28;20734;-66
2024/03/22 02:42:24;;;;;;;7.90;4.90;;;6.90;99.90;;;;;;2063459;28;20257;-66
2024/03/22 02:43:25;;;;;;;8.97;5.90;;;6.90;99.90;;;;;;2055459;28;20400;-66
2024/03/22 02:44:25;;;;;;;7.87;5.30;;;6.90;99.90;;;;;;2052782;28;20233;-66
2024/03/22 02:45:26;;;;;;;8.13;5.43;;;6.90;99.90;;;;;;2062186;28;20288;-66
2024/03/22 02:46:27;;;;;;;9.40;6.07;;;6.90;99.90;;;;;;2052866;28;20229;-66
2024/03/22 02:47:27;;;;;;;7.37;5.00;;;6.80;99.90;;;;;;2045113;28;20360;-66
2024/03/22 02:48:28;;;;;;;11.00;6.97;;;6.70;99.90;;;;;;2051745;28;20226;-66
2024/03/22 02:49:29;;;;;;;14.77;7.23;;;6.60;99.90;;;;;;2060854;28;20230;-65
2024/03/22 02:50:34;;;;;;;14.13;7.67;;;6.50;99.90;;;;;;2061955;28;20292;-66
2024/03/22 02:51:34;;;;;;;11.48;8.10;;;6.50;99.90;;;;;;2062220;28;20284;-66
2024/03/22 02:52:35;;;;;;;8.57;6.13;;;6.50;99.90;;;;;;2050660;28;20286;-65
2024/03/22 02:53:36;;;;;;;12.53;8.07;;;6.40;99.90;;;;;;2052341;28;20629;-65
2024/03/22 02:54:36;;;;;;;13.17;7.57;;;6.50;99.90;;;;;;2063073;28;20238;-66
2024/03/22 02:55:41;;;;;;;11.30;7.30;;;6.50;99.90;;;;;;2062220;28;20234;-65
2024/03/22 02:56:41;;;;;;;11.77;8.00;;;6.50;99.90;;;;;;2061594;28;20610;-65
2024/03/22 02:57:42;;;;;;;12.23;7.70;;;6.60;99.90;;;;;;2063293;28;20223;-65
2024/03/22 02:58:43;;;;;;;12.75;7.53;;;6.60;99.90;;;;;;2061145;28;20655;-66
2024/03/22 02:59:44;;;;;;;10.20;6.37;;;6.60;99.90;;;;;;2053170;28;20234;-66
2024/03/22 03:00:44;;;;;;;10.03;6.43;;;6.60;99.90;;;;;;2053309;28;20231;-66
2024/03/22 03:01:45;;;;;;;11.10;7.00;;;6.60;99.90;;;;;;2061661;28;20233;-66
2024/03/22 03:02:46;;;;;;;9.17;6.33;;;6.60;99.90;;;;;;2061747;28;20226;-66
2024/03/22 03:03:47;;;;;;;8.20;5.22;;;6.70;99.90;;;;;;2061670;28;20288;-65
2024/03/22 03:04:47;;;;;;;8.80;6.20;;;6.60;99.90;;;;;;2052797;28;20334;-65
2024/03/22 03:05:48;;;;;;;12.50;6.80;;;6.50;99.90;;;;;;2045644;28;20295;-65
2024/03/22 03:06:48;;;;;;;11.23;7.07;;;6.60;99.90;;;;;;2053440;28;20324;-64
2024/03/22 03:07:50;;;;;;;9.80;6.23;;;6.60;99.90;;;;;;2063376;28;20260;-65
2024/03/22 03:08:51;;;;;;;10.65;7.03;;;6.50;99.90;;;;;;2058109;28;20693;-65
2024/03/22 03:09:51;;;;;;;9.97;6.37;;;6.50;99.90;;;;;;2061391;28;20237;-65
2024/03/22 03:10:52;;;;;;;14.00;8.00;;;6.50;99.90;;;;;;2062144;28;20230;-65
2024/03/22 03:11:53;;;;;;;13.00;7.82;;;6.60;99.90;;;;;;2061960;28;20643;-65
2024/03/22 03:12:57;;;;;;;10.40;6.57;;;6.60;99.90;;;;;;2061894;28;20285;-65
2024/03/22 03:13:57;;;;;;;11.90;7.78;;;6.60;99.90;;;;;;2061236;28;20229;-65
2024/03/22 03:14:58;;;;;;;8.30;5.67;;;6.60;99.90;;;;;;2061529;28;20937;-65
2024/03/22 03:15:59;;;;;;;9.23;6.53;;;6.60;99.90;;;;;;2061384;28;20222;-64
2024/03/22 03:16:59;;;;;;;9.43;6.37;;;6.50;99.90;;;;;;2063686;28;20309;-65
2024/03/22 03:18:00;;;;;;;7.57;5.53;;;6.50;99.90;;;;;;2061361;28;20264;-64
2024/03/22 03:19:01;;;;;;;9.63;5.83;;;6.50;99.90;;;;;;2059781;28;20242;-61
2024/03/22 03:20:01;;;;;;;11.70;6.87;;;6.50;99.90;;;;;;2061373;28;20694;-64
2024/03/22 03:21:02;;;;;;;12.97;7.97;;;6.40;99.90;;;;;;2065250;28;20280;-65
2024/03/22 03:22:03;;;;;;;10.87;7.03;;;6.50;99.90;;;;;;2057675;28;20275;-64
2024/03/22 03:23:04;;;;;;;8.98;5.78;;;6.50;99.90;;;;;;2062759;28;20202;-64
2024/03/22 03:24:05;;;;;;;9.50;5.80;;;6.50;99.90;;;;;;2062790;28;20170;-65
2024/03/22 03:25:06;;;;;;;13.23;7.63;;;6.50;99.90;;;;;;2058985;28;20178;-65
2024/03/22 03:26:07;;;;;;;10.60;6.70;;;6.60;99.90;;;;;;2053075;28;20231;-64
2024/03/22 03:27:08;;;;;;;11.70;7.20;;;6.60;99.90;;;;;;2053077;28;20236;-64
2024/03/22 03:28:08;;;;;;;7.93;5.80;;;6.70;99.90;;;;;;2061193;28;20274;-65
2024/03/22 03:29:09;;;;;;;10.70;7.37;;;6.60;99.90;;;;;;2061516;28;20201;-64
2024/03/22 03:30:10;;;;;;;12.77;6.90;;;6.70;99.90;;;;;;2062435;28;20233;-65
2024/03/22 03:31:11;;;;;;;9.15;5.90;;;6.70;99.90;;;;;;2061221;28;20688;-65
2024/03/22 03:32:12;;;;;;;10.37;6.23;;;6.70;99.90;;;;;;2063289;28;20241;-65
2024/03/22 03:33:12;;;;;;;8.10;6.07;;;6.70;99.90;;;;;;2052631;28;20753;-65
2024/03/22 03:34:13;;;;;;;8.27;5.37;;;6.70;99.90;;;;;;2053016;28;20194;-64
2024/03/22 03:35:14;;;;;;;10.17;6.13;;;6.70;99.90;;;;;;2059462;28;20288;-65
2024/03/22 03:36:15;;;;;;;9.93;6.53;;;6.80;99.90;;;;;;2060576;28;20273;-65
2024/03/22 03:37:15;;;;;;;10.43;7.00;;;6.80;99.90;;;;;;2061878;28;20321;-65
2024/03/22 03:38:16;;;;;;;10.87;7.07;;;6.80;99.90;;;;;;2060362;28;20586;-65
2024/03/22 03:39:16;;;;;;;11.57;7.20;;;6.90;99.90;;;;;;2064602;28;20181;-64
2024/03/22 03:40:17;;;;;;;9.67;6.30;;;6.90;99.90;;;;;;2062918;28;20237;-65
2024/03/22 03:41:18;;;;;;;12.73;6.90;;;7.00;99.90;;;;;;2059857;28;20624;-64
2024/03/22 03:42:18;;;;;;;9.93;6.90;;;6.90;99.90;;;;;;2061338;28;20202;-64
2024/03/22 03:43:19;;;;;;;9.27;6.13;;;7.00;99.90;;;;;;2062483;28;20213;-65
2024/03/22 03:44:20;;;;;;;9.03;4.90;;;7.00;99.90;;;;;;2062061;28;20652;-64
2024/03/22 03:45:20;;;;;;;11.47;5.73;;;7.00;99.90;;;;;;2062388;28;20676;-64
2024/03/22 03:46:21;;;;;;;10.03;6.23;;;7.00;99.90;;;;;;2062909;28;20238;-63
2024/03/22 03:47:22;;;;;;;8.00;5.33;;;7.00;99.90;;;;;;2059619;28;20236;-65
2024/03/22 03:48:23;;;;;;;8.00;5.83;;;7.00;99.90;;;;;;2061679;28;20675;-65
2024/03/22 03:49:23;;;;;;;7.47;4.97;;;7.00;99.90;;;;;;2061703;28;20230;-64
2024/03/22 03:50:24;;;;;;;7.83;5.60;;;7.00;99.90;;;;;;2058374;28;20300;-65
2024/03/22 03:51:25;;;;;;;7.70;5.27;;;6.90;99.90;;;;;;2062521;28;20237;-65
2024/03/22 03:52:25;;;;;;;8.87;5.00;;;6.90;99.90;;;;;;2061535;28;20329;-64
2024/03/22 03:53:26;;;;;;;7.73;4.97;;;6.90;99.90;;;;;;2061517;28;20676;-65
2024/03/22 03:54:27;;;;;;;7.83;5.37;;;6.90;99.90;;;;;;2061526;28;20460;-65
2024/03/22 03:55:27;;;;;;;8.90;6.00;;;6.90;99.90;;;;;;2062426;28;20249;-64
2024/03/22 03:56:28;;;;;;;9.57;6.03;;;6.90;99.90;;;;;;2061553;28;20906;-65
2024/03/22 03:57:29;;;;;;;9.20;6.50;;;7.00;99.90;;;;;;2062395;28;20245;-65
2024/03/22 03:58:29;;;;;;;8.87;5.73;;;7.00;99.90;;;;;;2061067;28;20245;-64
2024/03/22 03:59:30;;;;;;;11.73;6.30;;;7.00;99.90;;;;;;2060481;28;20238;-65
2024/03/22 04:00:31;;;;;;;11.67;6.97;;;7.00;99.90;;;;;;2060642;28;20264;-65
2024/03/22 04:01:31;;;;;;;8.73;5.83;;;6.90;99.90;;;;;;2061709;28;20225;-64
2024/03/22 04:02:32;;;;;;;10.83;6.40;;;6.90;99.90;;;;;;2062175;28;20234;-65
2024/03/22 04:03:33;;;;;;;9.30;6.50;;;6.90;99.90;;;;;;2062718;28;20241;-65
2024/03/22 04:04:33;;;;;;;10.80;5.97;;;6.90;99.90;;;;;;2061656;28;20241;-65
2024/03/22 04:05:34;;;;;;;8.97;6.60;;;7.00;99.90;;;;;;2050349;28;20238;-65
2024/03/22 04:06:35;;;;;;;9.80;6.30;;;7.00;99.90;;;;;;2041986;28;20614;-65
2024/03/22 04:07:35;;;;;;;9.50;5.93;;;7.00;99.90;;;;;;2053099;28;20285;-65
2024/03/22 04:08:36;;;;;;;9.63;6.07;;;7.10;99.90;;;;;;2052743;28;20277;-65
2024/03/22 04:09:37;;;;;;;9.37;6.97;;;7.10;99.90;;;;;;2050711;28;20296;-64
2024/03/22 04:10:37;;;;;;;10.87;6.57;;;7.10;99.90;;;;;;2062224;28;20234;-64
2024/03/22 04:11:38;;;;;;;12.27;6.40;;;7.10;99.90;;;;;;2061645;28;20246;-65
2024/03/22 04:12:39;;;;;;;9.20;7.47;;;7.10;99.90;;;;;;2061718;28;20241;-65
2024/03/22 04:13:39;;;;;;;10.03;6.57;;;7.10;99.90;;;;;;2061927;28;20634;-65
2024/03/22 04:14:40;;;;;;;7.77;6.30;;;7.10;99.90;;;;;;2052578;28;20230;-65
2024/03/22 04:15:41;;;;;;;7.37;5.63;;;7.10;99.90;;;;;;2053340;28;20240;-65
2024/03/22 04:16:41;;;;;;;9.30;6.77;;;7.10;99.90;;;;;;2061363;28;20310;-64
2024/03/22 04:17:42;;;;;;;12.00;7.43;;;7.00;99.90;;;;;;2062321;28;20662;-64
2024/03/22 04:18:43;;;;;;;11.40;6.10;;;7.10;99.90;;;;;;2061624;28;20241;-65
2024/03/22 04:19:44;;;;;;;14.17;6.00;;;7.00;99.90;;;;;;2060675;28;20248;-65
2024/03/22 04:20:57;;;;;;;9.77;6.27;;;7.10;99.90;;;;;;2061960;28;20242;-65
2024/03/22 04:21:58;;;;;;;9.15;6.18;;;7.10;99.90;;;;;;2049957;28;20320;-65
2024/03/22 04:22:59;;;;;;;11.37;6.23;;;7.10;99.90;;;;;;2050626;28;20589;-65
2024/03/22 04:24:00;;;;;;;9.07;5.73;;;7.00;99.90;;;;;;2061314;28;20276;-65
2024/03/22 04:25:00;;;;;;;10.77;6.90;;;7.00;99.90;;;;;;2052635;28;20226;-65
2024/03/22 04:26:02;;;;;;;13.83;7.97;;;7.00;99.90;;;;;;2051967;28;20218;-63
2024/03/22 04:27:03;;;;;;;10.07;6.20;;;7.00;99.90;;;;;;2060968;28;20210;-65
2024/03/22 04:28:04;;;;;;;12.30;6.75;;;7.00;99.90;;;;;;2062947;28;20651;-65
2024/03/22 04:29:05;;;;;;;12.38;6.53;;;7.00;99.90;;;;;;2061815;28;20179;-65
2024/03/22 04:30:06;;;;;;;11.40;6.40;;;7.00;99.90;;;;;;2060749;28;20325;-64
2024/03/22 04:31:08;;;;;;;9.52;6.00;;;7.00;99.90;;;;;;2057863;28;20175;-65
2024/03/22 04:32:09;;;;;;;6.95;5.32;;;7.00;99.90;;;;;;2052849;28;20226;-65
2024/03/22 04:33:10;;;;;;;7.10;5.13;;;7.00;99.90;;;;;;2054760;28;20203;-65
2024/03/22 04:34:11;;;;;;;11.63;5.07;;;7.00;99.90;;;;;;2061469;28;20241;-65
2024/03/22 04:35:11;;;;;;;6.50;5.03;;;7.00;99.90;;;;;;2061426;28;20179;-65
2024/03/22 04:36:12;;;;;;;8.27;6.27;;;7.10;99.90;;;;;;2061410;28;20229;-64
2024/03/22 04:37:13;;;;;;;8.87;6.03;;;7.10;99.90;;;;;;2061484;28;20171;-64
2024/03/22 04:38:13;;;;;;;8.90;5.97;;;7.10;99.90;;;;;;2061935;28;20232;-65
2024/03/22 04:39:16;;;;;;;10.73;5.90;;;7.00;99.90;;;;;;2060973;28;20178;-64
2024/03/22 04:40:17;;;;;;;9.60;5.50;;;7.10;99.90;;;;;;2051799;28;20753;-64
2024/03/22 04:41:17;;;;;;;9.87;5.57;;;7.10;99.90;;;;;;2052485;28;20294;-65
2024/03/22 04:42:19;;;;;;;7.90;5.70;;;7.20;99.90;;;;;;2061274;28;20268;-64
2024/03/22 04:43:21;;;;;;;9.05;5.78;;;7.20;99.90;;;;;;2061586;28;20838;-65
2024/03/22 04:44:21;;;;;;;10.68;7.68;;;7.20;99.90;;;;;;2061244;28;20900;-65
2024/03/22 04:45:22;;;;;;;8.77;5.90;;;7.20;99.90;;;;;;2051959;28;20233;-65
2024/03/22 04:46:22;;;;;;;7.10;5.23;;;7.30;99.90;;;;;;2052017;28;20332;-65
2024/03/22 04:47:23;;;;;;;7.03;5.23;;;7.30;99.90;;;;;;2061479;28;20304;-65
2024/03/22 04:48:24;;;;;;;9.50;6.53;;;7.30;99.90;;;;;;2061155;28;20317;-63
2024/03/22 04:49:25;;;;;;;12.68;7.05;;;7.30;99.90;;;;;;2060517;28;20615;-64
2024/03/22 04:50:26;;;;;;;11.50;7.77;;;7.40;99.90;;;;;;2060763;28;20229;-65
2024/03/22 04:51:26;;;;;;;11.47;7.30;;;7.40;99.90;;;;;;2060883;28;20230;-64
2024/03/22 04:52:27;;;;;;;10.03;6.53;;;7.40;99.90;;;;;;2061153;28;20237;-65
2024/03/22 04:53:28;;;;;;;12.30;7.00;;;7.40;99.90;;;;;;2061284;28;20235;-65
2024/03/22 04:54:28;;;;;;;8.60;5.47;;;7.40;99.90;;;;;;2061116;28;20235;-64
2024/03/22 04:55:29;;;;;;;9.83;6.00;;;7.40;99.90;;;;;;2061954;28;20238;-65
2024/03/22 04:56:30;;;;;;;9.43;5.77;;;7.40;99.90;;;;;;2053998;28;20280;-65
2024/03/22 04:57:30;;;;;;;13.03;7.10;;;7.40;99.90;;;;;;2053286;28;20263;-64
2024/03/22 04:58:31;;;;;;;12.87;7.00;;;7.40;99.90;;;;;;2060786;28;20234;-65
2024/03/22 04:59:32;;;;;;;8.93;5.80;;;7.40;99.90;;;;;;2048765;28;20227;-65
2024/03/22 05:00:32;;;;;;;12.23;6.77;;;7.40;99.90;;;;;;2052934;28;20291;-64
2024/03/22 05:01:33;;;;;;;8.93;5.63;;;7.40;99.90;;;;;;2060866;28;20600;-65
2024/03/22 05:02:33;;;;;;;7.83;5.17;;;7.40;99.90;;;;;;2060745;28;20243;-65
2024/03/22 05:03:34;;;;;;;10.37;6.87;;;7.50;99.90;;;;;;2061597;28;20230;-65
2024/03/22 05:04:35;;;;;;;14.50;8.03;;;7.50;99.90;;;;;;2060953;28;20712;-65
2024/03/22 05:05:36;;;;;;;9.93;5.50;;;7.50;99.90;;;;;;2061529;28;20234;-65
2024/03/22 05:06:37;;;;;;;9.32;4.72;;;7.40;99.90;;;;;;2064388;28;20230;-65
2024/03/22 05:07:38;;;;;;;9.87;6.73;;;7.40;99.90;;;;;;2058741;28;20320;-64
2024/03/22 05:08:39;;;;;;;11.80;7.43;;;7.40;99.90;;;;;;2063260;28;20769;-64
2024/03/22 05:09:39;;;;;;;9.47;6.33;;;7.30;99.90;;;;;;2051771;28;20881;-65
2024/03/22 05:10:40;;;;;;;8.53;5.70;;;7.30;99.90;;;;;;2053682;28;20231;-65
2024/03/22 05:11:40;;;;;;;8.53;5.27;;;7.30;99.90;;;;;;2062573;28;20229;-64
2024/03/22 05:12:41;;;;;;;9.53;6.03;;;7.30;99.90;;;;;;2062410;28;20234;-65
2024/03/22 05:13:42;;;;;;;10.07;6.20;;;7.40;99.90;;;;;;2053828;28;20605;-65
2024/03/22 05:14:43;;;;;;;12.50;8.07;;;7.40;99.90;;;;;;2054140;28;20264;-64
2024/03/22 05:15:43;;;;;;;8.80;6.50;;;7.50;99.90;;;;;;2063176;28;20256;-65
2024/03/22 05:16:44;;;;;;;13.80;7.33;;;7.50;99.90;;;;;;2063023;28;20702;-65
2024/03/22 05:17:45;;;;;;;11.23;8.17;;;7.50;99.90;;;;;;2062413;28;20242;-64
2024/03/22 05:18:45;;;;;;;12.93;8.63;;;7.50;99.90;;;;;;2063744;28;20325;-65
2024/03/22 05:19:46;;;;;;;12.00;7.30;;;7.60;99.90;;;;;;2059321;28;20257;-65